sensor_id;sensor_type;location;lat;lon;timestamp;P1;durP1;ratioP1;P2;durP2;ratioP2
70169;SDS011;57543;45.442;9.212;2022-11-10T00:03:05;27.25;;;19.55;;
70169;SDS011;57543;45.442;9.212;2022-11-10T00:06:28;26.08;;;18.27;;
70169;SDS011;57543;45.442;9.212;2022-11-10T00:09:51;23.75;;;17.25;;
70169;SDS011;57543;45.442;9.212;2022-11-10T00:13:16;22.93;;;16.53;;
70169;SDS011;57543;45.442;9.212;2022-11-10T00:16:38;23.65;;;16.65;;
70169;SDS011;57543;45.442;9.212;2022-11-10T00:20:20;24.23;;;16.30;;
70169;SDS011;57543;45.442;9.212;2022-11-10T00:23:42;21.63;;;15.25;;
70169;SDS011;57543;45.442;9.212;2022-11-10T00:27:04;20.42;;;15.77;;
70169;SDS011;57543;45.442;9.212;2022-11-10T00:30:26;21.23;;;15.27;;
70169;SDS011;57543;45.442;9.212;2022-11-10T00:33:49;22.17;;;15.93;;
70169;SDS011;57543;45.442;9.212;2022-11-10T00:37:11;22.45;;;15.88;;
70169;SDS011;57543;45.442;9.212;2022-11-10T00:40:33;18.90;;;13.77;;
70169;SDS011;57543;45.442;9.212;2022-11-10T00:43:55;19.75;;;14.50;;
70169;SDS011;57543;45.442;9.212;2022-11-10T00:47:17;20.27;;;14.20;;
70169;SDS011;57543;45.442;9.212;2022-11-10T00:50:40;19.10;;;13.60;;
70169;SDS011;57543;45.442;9.212;2022-11-10T00:54:02;20.85;;;14.65;;
70169;SDS011;57543;45.442;9.212;2022-11-10T00:57:25;19.30;;;14.52;;
70169;SDS011;57543;45.442;9.212;2022-11-10T01:00:47;19.40;;;13.30;;
70169;SDS011;57543;45.442;9.212;2022-11-10T01:04:09;22.10;;;15.53;;
70169;SDS011;57543;45.442;9.212;2022-11-10T01:07:31;22.00;;;14.93;;
70169;SDS011;57543;45.442;9.212;2022-11-10T01:10:59;21.20;;;15.30;;
70169;SDS011;57543;45.442;9.212;2022-11-10T01:14:25;22.17;;;15.80;;
70169;SDS011;57543;45.442;9.212;2022-11-10T01:17:47;21.58;;;15.88;;
70169;SDS011;57543;45.442;9.212;2022-11-10T01:21:10;22.50;;;15.40;;
70169;SDS011;57543;45.442;9.212;2022-11-10T01:24:32;24.45;;;16.70;;
70169;SDS011;57543;45.442;9.212;2022-11-10T01:27:54;25.33;;;17.20;;
70169;SDS011;57543;45.442;9.212;2022-11-10T01:31:18;23.83;;;16.45;;
70169;SDS011;57543;45.442;9.212;2022-11-10T01:34:41;23.20;;;15.88;;
70169;SDS011;57543;45.442;9.212;2022-11-10T01:38:04;26.03;;;16.00;;
70169;SDS011;57543;45.442;9.212;2022-11-10T01:41:26;23.42;;;15.50;;
70169;SDS011;57543;45.442;9.212;2022-11-10T01:48:58;23.85;;;16.33;;
70169;SDS011;57543;45.442;9.212;2022-11-10T01:52:22;25.20;;;16.63;;
70169;SDS011;57543;45.442;9.212;2022-11-10T01:55:45;26.07;;;16.77;;
70169;SDS011;57543;45.442;9.212;2022-11-10T01:59:09;25.55;;;17.10;;
70169;SDS011;57543;45.442;9.212;2022-11-10T02:06:17;27.42;;;17.52;;
70169;SDS011;57543;45.442;9.212;2022-11-10T02:09:42;26.50;;;17.15;;
70169;SDS011;57543;45.442;9.212;2022-11-10T02:13:04;24.43;;;16.77;;
70169;SDS011;57543;45.442;9.212;2022-11-10T02:16:26;27.67;;;17.85;;
70169;SDS011;57543;45.442;9.212;2022-11-10T02:19:50;26.55;;;17.17;;
70169;SDS011;57543;45.442;9.212;2022-11-10T02:23:58;25.40;;;17.30;;
70169;SDS011;57543;45.442;9.212;2022-11-10T02:27:01;24.38;;;16.45;;
70169;SDS011;57543;45.442;9.212;2022-11-10T02:30:23;24.13;;;15.50;;
70169;SDS011;57543;45.442;9.212;2022-11-10T02:33:46;22.52;;;15.90;;
70169;SDS011;57543;45.442;9.212;2022-11-10T02:37:08;22.00;;;15.75;;
70169;SDS011;57543;45.442;9.212;2022-11-10T02:40:31;23.98;;;16.50;;
70169;SDS011;57543;45.442;9.212;2022-11-10T02:43:53;25.27;;;16.83;;
70169;SDS011;57543;45.442;9.212;2022-11-10T02:47:17;22.77;;;15.17;;
70169;SDS011;57543;45.442;9.212;2022-11-10T02:50:42;22.85;;;15.70;;
70169;SDS011;57543;45.442;9.212;2022-11-10T02:54:05;23.98;;;16.20;;
70169;SDS011;57543;45.442;9.212;2022-11-10T02:57:27;25.02;;;16.55;;
70169;SDS011;57543;45.442;9.212;2022-11-10T03:00:49;23.33;;;15.35;;
70169;SDS011;57543;45.442;9.212;2022-11-10T03:04:12;24.53;;;15.80;;
70169;SDS011;57543;45.442;9.212;2022-11-10T03:07:34;21.63;;;14.82;;
70169;SDS011;57543;45.442;9.212;2022-11-10T03:10:57;22.70;;;15.27;;
70169;SDS011;57543;45.442;9.212;2022-11-10T03:14:20;21.73;;;14.15;;
70169;SDS011;57543;45.442;9.212;2022-11-10T03:17:42;22.40;;;15.00;;
70169;SDS011;57543;45.442;9.212;2022-11-10T03:21:04;21.80;;;14.77;;
70169;SDS011;57543;45.442;9.212;2022-11-10T03:24:27;23.33;;;15.70;;
70169;SDS011;57543;45.442;9.212;2022-11-10T03:27:49;22.92;;;15.10;;
70169;SDS011;57543;45.442;9.212;2022-11-10T03:31:11;21.23;;;14.40;;
70169;SDS011;57543;45.442;9.212;2022-11-10T03:34:33;23.00;;;15.55;;
70169;SDS011;57543;45.442;9.212;2022-11-10T03:37:56;22.67;;;15.07;;
70169;SDS011;57543;45.442;9.212;2022-11-10T03:41:18;23.00;;;15.20;;
70169;SDS011;57543;45.442;9.212;2022-11-10T03:44:40;22.77;;;15.60;;
70169;SDS011;57543;45.442;9.212;2022-11-10T03:48:02;25.50;;;15.88;;
70169;SDS011;57543;45.442;9.212;2022-11-10T03:51:25;23.75;;;15.63;;
70169;SDS011;57543;45.442;9.212;2022-11-10T03:54:47;24.47;;;15.73;;
70169;SDS011;57543;45.442;9.212;2022-11-10T03:58:09;24.35;;;15.93;;
70169;SDS011;57543;45.442;9.212;2022-11-10T04:01:31;22.38;;;14.95;;
70169;SDS011;57543;45.442;9.212;2022-11-10T04:04:54;24.30;;;15.63;;
70169;SDS011;57543;45.442;9.212;2022-11-10T04:08:35;26.40;;;16.50;;
70169;SDS011;57543;45.442;9.212;2022-11-10T04:12:16;24.97;;;16.47;;
70169;SDS011;57543;45.442;9.212;2022-11-10T04:15:57;25.42;;;15.88;;
70169;SDS011;57543;45.442;9.212;2022-11-10T04:19:19;26.33;;;17.38;;
70169;SDS011;57543;45.442;9.212;2022-11-10T04:22:41;24.45;;;16.25;;
70169;SDS011;57543;45.442;9.212;2022-11-10T04:26:27;24.23;;;16.30;;
70169;SDS011;57543;45.442;9.212;2022-11-10T04:29:50;23.53;;;15.60;;
70169;SDS011;57543;45.442;9.212;2022-11-10T04:33:12;23.55;;;16.33;;
70169;SDS011;57543;45.442;9.212;2022-11-10T04:36:35;24.25;;;16.08;;
70169;SDS011;57543;45.442;9.212;2022-11-10T04:40:00;24.70;;;16.13;;
70169;SDS011;57543;45.442;9.212;2022-11-10T04:43:22;25.35;;;16.05;;
70169;SDS011;57543;45.442;9.212;2022-11-10T04:46:44;26.37;;;16.80;;
70169;SDS011;57543;45.442;9.212;2022-11-10T04:50:07;26.25;;;17.25;;
70169;SDS011;57543;45.442;9.212;2022-11-10T04:53:30;25.50;;;16.58;;
70169;SDS011;57543;45.442;9.212;2022-11-10T04:56:52;24.48;;;16.08;;
70169;SDS011;57543;45.442;9.212;2022-11-10T05:00:17;25.92;;;17.38;;
70169;SDS011;57543;45.442;9.212;2022-11-10T05:03:41;25.27;;;16.30;;
70169;SDS011;57543;45.442;9.212;2022-11-10T05:07:04;26.65;;;16.50;;
70169;SDS011;57543;45.442;9.212;2022-11-10T05:10:26;24.85;;;16.63;;
70169;SDS011;57543;45.442;9.212;2022-11-10T05:13:49;24.13;;;15.70;;
70169;SDS011;57543;45.442;9.212;2022-11-10T05:17:12;30.20;;;18.83;;
70169;SDS011;57543;45.442;9.212;2022-11-10T05:20:34;28.30;;;18.27;;
70169;SDS011;57543;45.442;9.212;2022-11-10T05:23:56;29.42;;;19.02;;
70169;SDS011;57543;45.442;9.212;2022-11-10T05:27:18;31.42;;;17.70;;
70169;SDS011;57543;45.442;9.212;2022-11-10T05:30:41;34.78;;;19.33;;
70169;SDS011;57543;45.442;9.212;2022-11-10T05:34:04;33.55;;;18.95;;
70169;SDS011;57543;45.442;9.212;2022-11-10T05:37:26;36.17;;;19.63;;
70169;SDS011;57543;45.442;9.212;2022-11-10T05:40:48;33.72;;;18.83;;
70169;SDS011;57543;45.442;9.212;2022-11-10T05:44:11;36.83;;;20.23;;
70169;SDS011;57543;45.442;9.212;2022-11-10T05:47:35;39.38;;;21.05;;
70169;SDS011;57543;45.442;9.212;2022-11-10T05:50:57;39.05;;;21.33;;
70169;SDS011;57543;45.442;9.212;2022-11-10T05:54:19;38.90;;;20.87;;
70169;SDS011;57543;45.442;9.212;2022-11-10T05:57:45;38.65;;;20.40;;
70169;SDS011;57543;45.442;9.212;2022-11-10T06:01:09;41.85;;;22.17;;
70169;SDS011;57543;45.442;9.212;2022-11-10T06:04:31;39.33;;;21.30;;
70169;SDS011;57543;45.442;9.212;2022-11-10T06:07:53;36.63;;;20.95;;
70169;SDS011;57543;45.442;9.212;2022-11-10T06:11:15;38.70;;;21.53;;
70169;SDS011;57543;45.442;9.212;2022-11-10T06:14:38;42.67;;;22.23;;
70169;SDS011;57543;45.442;9.212;2022-11-10T06:18:00;43.75;;;22.02;;
70169;SDS011;57543;45.442;9.212;2022-11-10T06:21:23;42.25;;;21.70;;
70169;SDS011;57543;45.442;9.212;2022-11-10T06:24:45;46.25;;;23.33;;
70169;SDS011;57543;45.442;9.212;2022-11-10T06:28:08;44.43;;;23.70;;
70169;SDS011;57543;45.442;9.212;2022-11-10T06:31:30;48.83;;;25.45;;
70169;SDS011;57543;45.442;9.212;2022-11-10T06:34:52;49.85;;;23.63;;
70169;SDS011;57543;45.442;9.212;2022-11-10T06:38:15;50.60;;;24.63;;
70169;SDS011;57543;45.442;9.212;2022-11-10T06:41:37;50.35;;;24.77;;
70169;SDS011;57543;45.442;9.212;2022-11-10T06:44:59;48.27;;;24.33;;
70169;SDS011;57543;45.442;9.212;2022-11-10T06:48:22;48.88;;;24.75;;
70169;SDS011;57543;45.442;9.212;2022-11-10T06:51:44;50.05;;;24.67;;
70169;SDS011;57543;45.442;9.212;2022-11-10T06:55:07;52.80;;;24.70;;
70169;SDS011;57543;45.442;9.212;2022-11-10T06:58:30;49.53;;;24.50;;
70169;SDS011;57543;45.442;9.212;2022-11-10T07:01:52;52.93;;;25.20;;
70169;SDS011;57543;45.442;9.212;2022-11-10T07:05:14;51.05;;;23.80;;
70169;SDS011;57543;45.442;9.212;2022-11-10T07:08:36;46.22;;;23.95;;
70169;SDS011;57543;45.442;9.212;2022-11-10T07:11:58;48.20;;;24.35;;
70169;SDS011;57543;45.442;9.212;2022-11-10T07:15:20;48.08;;;25.10;;
70169;SDS011;57543;45.442;9.212;2022-11-10T07:18:43;48.10;;;23.47;;
70169;SDS011;57543;45.442;9.212;2022-11-10T07:22:07;47.17;;;23.48;;
70169;SDS011;57543;45.442;9.212;2022-11-10T07:25:30;47.22;;;24.30;;
70169;SDS011;57543;45.442;9.212;2022-11-10T07:28:53;45.00;;;23.83;;
70169;SDS011;57543;45.442;9.212;2022-11-10T07:32:16;47.90;;;24.02;;
70169;SDS011;57543;45.442;9.212;2022-11-10T07:35:38;45.73;;;23.93;;
70169;SDS011;57543;45.442;9.212;2022-11-10T07:39:01;43.65;;;23.17;;
70169;SDS011;57543;45.442;9.212;2022-11-10T07:42:23;49.90;;;25.23;;
70169;SDS011;57543;45.442;9.212;2022-11-10T07:45:47;48.30;;;24.10;;
70169;SDS011;57543;45.442;9.212;2022-11-10T07:49:10;46.80;;;23.98;;
70169;SDS011;57543;45.442;9.212;2022-11-10T07:52:33;49.87;;;23.57;;
70169;SDS011;57543;45.442;9.212;2022-11-10T07:55:56;46.38;;;24.42;;
70169;SDS011;57543;45.442;9.212;2022-11-10T07:59:19;44.95;;;23.80;;
70169;SDS011;57543;45.442;9.212;2022-11-10T08:02:41;43.33;;;23.75;;
70169;SDS011;57543;45.442;9.212;2022-11-10T08:06:03;44.28;;;23.52;;
70169;SDS011;57543;45.442;9.212;2022-11-10T08:09:25;44.07;;;23.77;;
70169;SDS011;57543;45.442;9.212;2022-11-10T08:12:58;45.17;;;24.08;;
70169;SDS011;57543;45.442;9.212;2022-11-10T08:16:22;45.33;;;23.95;;
70169;SDS011;57543;45.442;9.212;2022-11-10T08:19:45;45.60;;;23.90;;
70169;SDS011;57543;45.442;9.212;2022-11-10T08:23:07;47.13;;;24.40;;
70169;SDS011;57543;45.442;9.212;2022-11-10T08:26:30;43.40;;;23.13;;
70169;SDS011;57543;45.442;9.212;2022-11-10T08:29:52;50.67;;;24.58;;
70169;SDS011;57543;45.442;9.212;2022-11-10T08:33:15;48.40;;;25.33;;
70169;SDS011;57543;45.442;9.212;2022-11-10T08:36:39;41.42;;;20.25;;
70169;SDS011;57543;45.442;9.212;2022-11-10T08:40:01;42.00;;;21.33;;
70169;SDS011;57543;45.442;9.212;2022-11-10T08:43:24;38.73;;;20.40;;
70169;SDS011;57543;45.442;9.212;2022-11-10T08:46:47;41.72;;;21.90;;
70169;SDS011;57543;45.442;9.212;2022-11-10T08:50:09;44.45;;;22.55;;
70169;SDS011;57543;45.442;9.212;2022-11-10T08:53:31;48.08;;;23.65;;
70169;SDS011;57543;45.442;9.212;2022-11-10T08:56:53;41.67;;;23.35;;
70169;SDS011;57543;45.442;9.212;2022-11-10T09:00:16;39.93;;;21.03;;
70169;SDS011;57543;45.442;9.212;2022-11-10T09:03:38;41.13;;;21.48;;
70169;SDS011;57543;45.442;9.212;2022-11-10T09:07:01;42.20;;;22.20;;
70169;SDS011;57543;45.442;9.212;2022-11-10T09:10:23;42.60;;;22.40;;
70169;SDS011;57543;45.442;9.212;2022-11-10T09:13:45;43.28;;;23.73;;
70169;SDS011;57543;45.442;9.212;2022-11-10T09:17:07;41.17;;;22.57;;
70169;SDS011;57543;45.442;9.212;2022-11-10T09:20:30;44.28;;;23.33;;
70169;SDS011;57543;45.442;9.212;2022-11-10T09:23:54;41.45;;;22.13;;
70169;SDS011;57543;45.442;9.212;2022-11-10T09:27:16;47.28;;;23.23;;
70169;SDS011;57543;45.442;9.212;2022-11-10T09:30:39;43.50;;;22.35;;
70169;SDS011;57543;45.442;9.212;2022-11-10T09:34:02;42.67;;;23.00;;
70169;SDS011;57543;45.442;9.212;2022-11-10T09:37:25;39.35;;;22.52;;
70169;SDS011;57543;45.442;9.212;2022-11-10T09:40:57;43.67;;;22.10;;
70169;SDS011;57543;45.442;9.212;2022-11-10T09:44:32;41.50;;;22.00;;
70169;SDS011;57543;45.442;9.212;2022-11-10T09:48:00;50.78;;;24.42;;
70169;SDS011;57543;45.442;9.212;2022-11-10T09:51:37;46.40;;;25.10;;
70169;SDS011;57543;45.442;9.212;2022-11-10T09:55:04;46.08;;;23.52;;
70169;SDS011;57543;45.442;9.212;2022-11-10T09:58:52;50.22;;;26.23;;
70169;SDS011;57543;45.442;9.212;2022-11-10T10:05:46;49.38;;;25.02;;
70169;SDS011;57543;45.442;9.212;2022-11-10T10:09:32;45.17;;;23.67;;
70169;SDS011;57543;45.442;9.212;2022-11-10T10:23:47;43.80;;;23.20;;
70169;SDS011;57543;45.442;9.212;2022-11-10T10:27:16;38.23;;;21.03;;
70169;SDS011;57543;45.442;9.212;2022-11-10T10:30:43;42.28;;;23.35;;
70169;SDS011;57543;45.442;9.212;2022-11-10T10:34:13;48.78;;;24.77;;
70169;SDS011;57543;45.442;9.212;2022-11-10T10:37:48;45.25;;;23.67;;
70169;SDS011;57543;45.442;9.212;2022-11-10T10:41:14;44.92;;;22.65;;
70169;SDS011;57543;45.442;9.212;2022-11-10T10:48:43;49.67;;;24.80;;
70169;SDS011;57543;45.442;9.212;2022-11-10T10:55:33;45.92;;;25.30;;
70169;SDS011;57543;45.442;9.212;2022-11-10T10:58:57;50.85;;;25.23;;
70169;SDS011;57543;45.442;9.212;2022-11-10T11:02:26;47.60;;;25.20;;
70169;SDS011;57543;45.442;9.212;2022-11-10T11:05:58;46.97;;;23.42;;
70169;SDS011;57543;45.442;9.212;2022-11-10T11:09:25;46.42;;;23.27;;
70169;SDS011;57543;45.442;9.212;2022-11-10T11:12:49;45.55;;;24.75;;
70169;SDS011;57543;45.442;9.212;2022-11-10T11:16:11;48.80;;;23.92;;
70169;SDS011;57543;45.442;9.212;2022-11-10T11:19:35;47.43;;;23.40;;
70169;SDS011;57543;45.442;9.212;2022-11-10T11:27:04;41.65;;;22.25;;
70169;SDS011;57543;45.442;9.212;2022-11-10T11:38:33;44.43;;;22.37;;
70169;SDS011;57543;45.442;9.212;2022-11-10T11:42:31;45.08;;;22.33;;
70169;SDS011;57543;45.442;9.212;2022-11-10T11:46:37;42.92;;;22.15;;
70169;SDS011;57543;45.442;9.212;2022-11-10T11:50:15;35.90;;;19.73;;
70169;SDS011;57543;45.442;9.212;2022-11-10T12:01:51;39.35;;;21.60;;
70169;SDS011;57543;45.442;9.212;2022-11-10T12:09:32;41.72;;;22.10;;
70169;SDS011;57543;45.442;9.212;2022-11-10T12:13:25;42.78;;;22.88;;
70169;SDS011;57543;45.442;9.212;2022-11-10T12:16:45;45.27;;;23.30;;
70169;SDS011;57543;45.442;9.212;2022-11-10T12:24:27;49.90;;;24.40;;
70169;SDS011;57543;45.442;9.212;2022-11-10T12:27:55;44.00;;;23.95;;
70169;SDS011;57543;45.442;9.212;2022-11-10T12:31:26;46.70;;;24.05;;
70169;SDS011;57543;45.442;9.212;2022-11-10T12:34:53;50.20;;;25.33;;
70169;SDS011;57543;45.442;9.212;2022-11-10T12:38:20;48.50;;;24.73;;
70169;SDS011;57543;45.442;9.212;2022-11-10T12:41:48;50.30;;;24.77;;
70169;SDS011;57543;45.442;9.212;2022-11-10T12:45:25;52.17;;;26.23;;
70169;SDS011;57543;45.442;9.212;2022-11-10T12:52:30;50.70;;;24.13;;
70169;SDS011;57543;45.442;9.212;2022-11-10T12:56:44;47.28;;;23.77;;
70169;SDS011;57543;45.442;9.212;2022-11-10T12:59:54;48.08;;;24.02;;
70169;SDS011;57543;45.442;9.212;2022-11-10T13:03:29;51.08;;;26.13;;
70169;SDS011;57543;45.442;9.212;2022-11-10T13:06:55;47.42;;;24.45;;
70169;SDS011;57543;45.442;9.212;2022-11-10T13:10:23;50.00;;;25.17;;
70169;SDS011;57543;45.442;9.212;2022-11-10T13:13:58;50.35;;;25.92;;
70169;SDS011;57543;45.442;9.212;2022-11-10T13:20:48;53.35;;;25.90;;
70169;SDS011;57543;45.442;9.212;2022-11-10T13:24:23;46.72;;;24.63;;
70169;SDS011;57543;45.442;9.212;2022-11-10T13:27:50;45.43;;;24.57;;
70169;SDS011;57543;45.442;9.212;2022-11-10T13:34:47;49.53;;;24.45;;
70169;SDS011;57543;45.442;9.212;2022-11-10T13:42:00;53.03;;;26.33;;
70169;SDS011;57543;45.442;9.212;2022-11-10T13:45:25;50.63;;;26.43;;
70169;SDS011;57543;45.442;9.212;2022-11-10T13:49:09;54.75;;;26.17;;
70169;SDS011;57543;45.442;9.212;2022-11-10T13:52:58;60.03;;;28.10;;
70169;SDS011;57543;45.442;9.212;2022-11-10T13:56:46;54.70;;;26.73;;
70169;SDS011;57543;45.442;9.212;2022-11-10T14:07:12;56.28;;;26.58;;
70169;SDS011;57543;45.442;9.212;2022-11-10T14:10:40;56.55;;;25.58;;
70169;SDS011;57543;45.442;9.212;2022-11-10T14:14:17;52.28;;;25.00;;
70169;SDS011;57543;45.442;9.212;2022-11-10T14:17:51;50.97;;;24.38;;
70169;SDS011;57543;45.442;9.212;2022-11-10T14:25:01;50.38;;;25.00;;
70169;SDS011;57543;45.442;9.212;2022-11-10T14:28:28;51.67;;;24.38;;
70169;SDS011;57543;45.442;9.212;2022-11-10T14:31:52;48.80;;;24.75;;
70169;SDS011;57543;45.442;9.212;2022-11-10T14:35:16;47.88;;;23.95;;
70169;SDS011;57543;45.442;9.212;2022-11-10T14:38:42;53.37;;;26.23;;
70169;SDS011;57543;45.442;9.212;2022-11-10T14:42:05;51.10;;;25.60;;
70169;SDS011;57543;45.442;9.212;2022-11-10T14:45:30;50.90;;;25.08;;
70169;SDS011;57543;45.442;9.212;2022-11-10T14:48:54;47.80;;;24.10;;
70169;SDS011;57543;45.442;9.212;2022-11-10T14:52:19;48.75;;;24.42;;
70169;SDS011;57543;45.442;9.212;2022-11-10T14:55:43;49.47;;;25.83;;
70169;SDS011;57543;45.442;9.212;2022-11-10T14:59:06;51.47;;;24.88;;
70169;SDS011;57543;45.442;9.212;2022-11-10T15:02:33;50.13;;;25.05;;
70169;SDS011;57543;45.442;9.212;2022-11-10T15:05:56;53.53;;;24.85;;
70169;SDS011;57543;45.442;9.212;2022-11-10T15:09:30;51.28;;;23.45;;
70169;SDS011;57543;45.442;9.212;2022-11-10T15:16:23;55.42;;;25.25;;
70169;SDS011;57543;45.442;9.212;2022-11-10T15:23:20;48.58;;;25.00;;
70169;SDS011;57543;45.442;9.212;2022-11-10T15:26:43;49.53;;;24.42;;
70169;SDS011;57543;45.442;9.212;2022-11-10T15:30:19;48.40;;;25.37;;
70169;SDS011;57543;45.442;9.212;2022-11-10T15:33:44;48.85;;;23.63;;
70169;SDS011;57543;45.442;9.212;2022-11-10T15:37:20;52.63;;;24.40;;
70169;SDS011;57543;45.442;9.212;2022-11-10T15:40:51;50.88;;;24.83;;
70169;SDS011;57543;45.442;9.212;2022-11-10T15:44:25;52.67;;;26.75;;
70169;SDS011;57543;45.442;9.212;2022-11-10T15:47:51;55.57;;;27.37;;
70169;SDS011;57543;45.442;9.212;2022-11-10T15:51:14;52.83;;;25.77;;
70169;SDS011;57543;45.442;9.212;2022-11-10T15:54:38;53.25;;;25.88;;
70169;SDS011;57543;45.442;9.212;2022-11-10T15:58:00;54.50;;;26.73;;
70169;SDS011;57543;45.442;9.212;2022-11-10T16:01:22;49.47;;;24.30;;
70169;SDS011;57543;45.442;9.212;2022-11-10T16:04:45;52.40;;;25.83;;
70169;SDS011;57543;45.442;9.212;2022-11-10T16:08:11;59.17;;;25.58;;
70169;SDS011;57543;45.442;9.212;2022-11-10T16:11:39;51.17;;;25.17;;
70169;SDS011;57543;45.442;9.212;2022-11-10T16:15:04;56.90;;;26.20;;
70169;SDS011;57543;45.442;9.212;2022-11-10T16:18:28;46.28;;;22.95;;
70169;SDS011;57543;45.442;9.212;2022-11-10T16:21:51;54.37;;;26.07;;
70169;SDS011;57543;45.442;9.212;2022-11-10T16:25:13;52.47;;;24.90;;
70169;SDS011;57543;45.442;9.212;2022-11-10T16:28:38;50.10;;;24.77;;
70169;SDS011;57543;45.442;9.212;2022-11-10T16:32:02;55.90;;;27.00;;
70169;SDS011;57543;45.442;9.212;2022-11-10T16:35:25;51.70;;;24.02;;
70169;SDS011;57543;45.442;9.212;2022-11-10T16:38:48;53.40;;;25.07;;
70169;SDS011;57543;45.442;9.212;2022-11-10T16:42:10;49.90;;;23.25;;
70169;SDS011;57543;45.442;9.212;2022-11-10T16:45:32;49.05;;;23.48;;
70169;SDS011;57543;45.442;9.212;2022-11-10T16:48:55;50.33;;;22.63;;
70169;SDS011;57543;45.442;9.212;2022-11-10T16:52:20;48.50;;;23.20;;
70169;SDS011;57543;45.442;9.212;2022-11-10T16:55:43;45.27;;;20.63;;
70169;SDS011;57543;45.442;9.212;2022-11-10T16:59:05;47.22;;;21.90;;
70169;SDS011;57543;45.442;9.212;2022-11-10T17:02:28;53.63;;;22.83;;
70169;SDS011;57543;45.442;9.212;2022-11-10T17:05:54;48.33;;;22.83;;
70169;SDS011;57543;45.442;9.212;2022-11-10T17:09:17;47.72;;;22.92;;
70169;SDS011;57543;45.442;9.212;2022-11-10T17:12:43;47.20;;;23.30;;
70169;SDS011;57543;45.442;9.212;2022-11-10T17:16:09;48.45;;;22.98;;
70169;SDS011;57543;45.442;9.212;2022-11-10T17:19:42;50.75;;;23.85;;
70169;SDS011;57543;45.442;9.212;2022-11-10T17:23:04;46.72;;;23.08;;
70169;SDS011;57543;45.442;9.212;2022-11-10T17:26:27;47.53;;;22.83;;
70169;SDS011;57543;45.442;9.212;2022-11-10T17:29:51;47.43;;;23.10;;
70169;SDS011;57543;45.442;9.212;2022-11-10T17:33:13;47.00;;;22.65;;
70169;SDS011;57543;45.442;9.212;2022-11-10T17:36:35;49.42;;;23.52;;
70169;SDS011;57543;45.442;9.212;2022-11-10T17:39:58;51.03;;;23.85;;
70169;SDS011;57543;45.442;9.212;2022-11-10T17:43:23;49.92;;;23.00;;
70169;SDS011;57543;45.442;9.212;2022-11-10T17:46:46;55.13;;;24.50;;
70169;SDS011;57543;45.442;9.212;2022-11-10T17:50:08;52.72;;;24.63;;
70169;SDS011;57543;45.442;9.212;2022-11-10T17:53:30;48.20;;;23.88;;
70169;SDS011;57543;45.442;9.212;2022-11-10T17:56:52;54.03;;;23.80;;
70169;SDS011;57543;45.442;9.212;2022-11-10T18:00:15;56.58;;;24.70;;
70169;SDS011;57543;45.442;9.212;2022-11-10T18:03:38;53.07;;;24.43;;
70169;SDS011;57543;45.442;9.212;2022-11-10T18:07:01;55.05;;;25.48;;
70169;SDS011;57543;45.442;9.212;2022-11-10T18:10:23;55.55;;;25.58;;
70169;SDS011;57543;45.442;9.212;2022-11-10T18:13:46;52.97;;;24.80;;
70169;SDS011;57543;45.442;9.212;2022-11-10T18:17:08;54.58;;;25.58;;
70169;SDS011;57543;45.442;9.212;2022-11-10T18:20:30;56.27;;;26.07;;
70169;SDS011;57543;45.442;9.212;2022-11-10T18:23:53;50.85;;;24.52;;
70169;SDS011;57543;45.442;9.212;2022-11-10T18:27:15;50.80;;;25.35;;
70169;SDS011;57543;45.442;9.212;2022-11-10T18:30:37;54.88;;;25.88;;
70169;SDS011;57543;45.442;9.212;2022-11-10T18:34:00;57.70;;;26.08;;
70169;SDS011;57543;45.442;9.212;2022-11-10T18:37:22;55.43;;;25.77;;
70169;SDS011;57543;45.442;9.212;2022-11-10T18:40:44;54.22;;;26.52;;
70169;SDS011;57543;45.442;9.212;2022-11-10T18:44:07;54.75;;;26.27;;
70169;SDS011;57543;45.442;9.212;2022-11-10T18:47:29;52.13;;;25.70;;
70169;SDS011;57543;45.442;9.212;2022-11-10T18:50:51;58.45;;;26.60;;
70169;SDS011;57543;45.442;9.212;2022-11-10T18:54:14;54.13;;;25.47;;
70169;SDS011;57543;45.442;9.212;2022-11-10T18:57:36;56.03;;;25.42;;
70169;SDS011;57543;45.442;9.212;2022-11-10T19:01:03;58.90;;;26.30;;
70169;SDS011;57543;45.442;9.212;2022-11-10T19:04:26;61.10;;;27.95;;
70169;SDS011;57543;45.442;9.212;2022-11-10T19:07:48;55.28;;;26.50;;
70169;SDS011;57543;45.442;9.212;2022-11-10T19:11:12;53.27;;;25.57;;
70169;SDS011;57543;45.442;9.212;2022-11-10T19:14:37;55.15;;;26.63;;
70169;SDS011;57543;45.442;9.212;2022-11-10T19:17:59;56.67;;;26.08;;
70169;SDS011;57543;45.442;9.212;2022-11-10T19:21:22;58.88;;;26.65;;
70169;SDS011;57543;45.442;9.212;2022-11-10T19:24:48;55.50;;;27.00;;
70169;SDS011;57543;45.442;9.212;2022-11-10T19:28:10;64.23;;;28.97;;
70169;SDS011;57543;45.442;9.212;2022-11-10T19:31:33;60.97;;;27.67;;
70169;SDS011;57543;45.442;9.212;2022-11-10T19:34:55;57.72;;;27.77;;
70169;SDS011;57543;45.442;9.212;2022-11-10T19:38:17;64.40;;;30.02;;
70169;SDS011;57543;45.442;9.212;2022-11-10T19:41:39;63.00;;;28.58;;
70169;SDS011;57543;45.442;9.212;2022-11-10T19:45:01;62.17;;;28.60;;
70169;SDS011;57543;45.442;9.212;2022-11-10T19:48:24;61.83;;;27.63;;
70169;SDS011;57543;45.442;9.212;2022-11-10T19:51:50;64.03;;;29.88;;
70169;SDS011;57543;45.442;9.212;2022-11-10T19:55:12;66.07;;;30.48;;
70169;SDS011;57543;45.442;9.212;2022-11-10T19:58:37;63.65;;;29.73;;
70169;SDS011;57543;45.442;9.212;2022-11-10T20:02:01;63.43;;;29.00;;
70169;SDS011;57543;45.442;9.212;2022-11-10T20:05:23;67.90;;;30.25;;
70169;SDS011;57543;45.442;9.212;2022-11-10T20:08:46;67.53;;;31.27;;
70169;SDS011;57543;45.442;9.212;2022-11-10T20:12:09;66.13;;;31.27;;
70169;SDS011;57543;45.442;9.212;2022-11-10T20:15:32;64.03;;;29.83;;
70169;SDS011;57543;45.442;9.212;2022-11-10T20:18:54;65.97;;;31.37;;
70169;SDS011;57543;45.442;9.212;2022-11-10T20:22:17;63.05;;;29.85;;
70169;SDS011;57543;45.442;9.212;2022-11-10T20:25:39;65.13;;;30.88;;
70169;SDS011;57543;45.442;9.212;2022-11-10T20:29:01;64.78;;;30.10;;
70169;SDS011;57543;45.442;9.212;2022-11-10T20:32:24;65.53;;;30.35;;
70169;SDS011;57543;45.442;9.212;2022-11-10T20:35:47;66.00;;;30.87;;
70169;SDS011;57543;45.442;9.212;2022-11-10T20:39:09;75.47;;;35.03;;
70169;SDS011;57543;45.442;9.212;2022-11-10T20:42:33;80.82;;;37.30;;
70169;SDS011;57543;45.442;9.212;2022-11-10T20:45:55;81.03;;;37.58;;
70169;SDS011;57543;45.442;9.212;2022-11-10T20:49:18;94.68;;;44.45;;
70169;SDS011;57543;45.442;9.212;2022-11-10T20:52:40;85.83;;;42.97;;
70169;SDS011;57543;45.442;9.212;2022-11-10T20:56:02;89.05;;;41.28;;
70169;SDS011;57543;45.442;9.212;2022-11-10T20:59:28;90.22;;;42.53;;
70169;SDS011;57543;45.442;9.212;2022-11-10T21:02:51;84.97;;;41.05;;
70169;SDS011;57543;45.442;9.212;2022-11-10T21:06:13;97.07;;;45.42;;
70169;SDS011;57543;45.442;9.212;2022-11-10T21:09:36;90.30;;;44.70;;
70169;SDS011;57543;45.442;9.212;2022-11-10T21:12:58;94.25;;;44.08;;
70169;SDS011;57543;45.442;9.212;2022-11-10T21:16:20;93.60;;;46.05;;
70169;SDS011;57543;45.442;9.212;2022-11-10T21:19:43;98.78;;;46.17;;
70169;SDS011;57543;45.442;9.212;2022-11-10T21:23:05;91.43;;;44.83;;
70169;SDS011;57543;45.442;9.212;2022-11-10T21:26:27;86.20;;;42.27;;
70169;SDS011;57543;45.442;9.212;2022-11-10T21:29:50;86.15;;;41.50;;